createdAt,value
2023-05-22T00:00:27.347Z,25.00
2023-05-22T00:01:27.349Z,25.00
2023-05-22T00:02:27.467Z,25.00
2023-05-22T00:03:27.427Z,0.00
2023-05-22T00:04:27.386Z,0.00
2023-05-22T00:05:27.500Z,0.00
2023-05-22T00:06:27.435Z,0.00
2023-05-22T00:07:27.528Z,0.00
2023-05-22T00:08:29.401Z,2.86
2023-05-22T00:09:27.485Z,23.73
2023-05-22T00:10:27.472Z,22.23
2023-05-22T00:11:27.472Z,30.17
2023-05-22T00:12:27.460Z,25.13
2023-05-22T00:13:27.480Z,25.24
2023-05-22T00:14:27.443Z,31.83
2023-05-22T00:15:27.436Z,31.60
2023-05-22T00:16:27.437Z,25.00
2023-05-22T00:17:27.469Z,25.00
2023-05-22T00:18:27.411Z,26.72
2023-05-22T00:19:27.436Z,30.89
2023-05-22T00:20:27.406Z,36.54
2023-05-22T00:21:27.406Z,28.90
2023-05-22T00:22:27.401Z,30.68
2023-05-22T00:23:27.392Z,28.45
2023-05-22T00:24:27.419Z,26.11
2023-05-22T00:25:27.386Z,37.66
2023-05-22T00:26:27.399Z,33.18
2023-05-22T00:27:27.377Z,28.86
2023-05-22T00:28:27.377Z,24.17
2023-05-22T00:29:27.507Z,27.19
2023-05-22T00:30:27.364Z,32.12
2023-05-22T00:31:27.365Z,36.14
2023-05-22T00:32:27.463Z,27.74
2023-05-22T00:33:27.416Z,30.24
2023-05-22T00:34:27.459Z,28.71
2023-05-22T00:35:27.362Z,26.29
2023-05-22T00:36:27.352Z,34.09
2023-05-22T00:37:27.387Z,27.77
2023-05-22T00:38:27.347Z,24.21
2023-05-22T00:39:27.335Z,34.89
2023-05-22T00:40:27.332Z,28.74
2023-05-22T00:41:27.321Z,33.36
2023-05-22T00:42:27.321Z,29.91
2023-05-22T00:43:27.319Z,27.07
2023-05-22T00:44:27.324Z,32.53
2023-05-22T00:45:27.350Z,33.95
2023-05-22T00:46:27.359Z,29.04
2023-05-22T00:47:27.397Z,34.50
2023-05-22T00:48:27.336Z,33.43
2023-05-22T00:49:27.295Z,29.28
2023-05-22T00:50:27.307Z,29.69
2023-05-22T00:51:27.300Z,32.94
2023-05-22T00:52:27.320Z,26.20
2023-05-22T00:53:27.342Z,25.00
2023-05-22T00:54:27.372Z,36.09
2023-05-22T00:55:27.403Z,25.05
2023-05-22T00:56:27.433Z,27.46
2023-05-22T00:57:27.488Z,35.23
2023-05-22T00:58:27.634Z,34.57
2023-05-22T00:59:27.532Z,33.79
2023-05-22T01:00:27.557Z,26.59
2023-05-22T01:01:27.611Z,32.77
2023-05-22T01:02:27.635Z,29.15
2023-05-22T01:03:27.903Z,27.92
2023-05-22T01:04:27.671Z,27.76
2023-05-22T01:05:27.708Z,31.03
2023-05-22T01:06:27.734Z,33.93
2023-05-22T01:07:27.773Z,31.74
2023-05-22T01:08:27.799Z,26.53
2023-05-22T01:09:27.829Z,27.90
2023-05-22T01:10:27.861Z,32.71
2023-05-22T01:11:27.895Z,29.20
2023-05-22T01:12:27.919Z,31.58
2023-05-22T01:13:27.962Z,31.63
2023-05-22T01:14:27.991Z,28.35
2023-05-22T01:15:28.033Z,36.26
2023-05-22T01:16:28.078Z,35.68
2023-05-22T01:17:28.167Z,37.08
2023-05-22T01:18:28.126Z,28.96
2023-05-22T01:19:28.253Z,40.94
2023-05-22T01:20:28.201Z,28.75
2023-05-22T01:21:28.241Z,32.64
2023-05-22T01:22:28.289Z,30.61
2023-05-22T01:23:28.325Z,34.05
2023-05-22T01:24:28.393Z,38.60
2023-05-22T01:25:28.389Z,34.73
2023-05-22T01:26:28.428Z,33.96
2023-05-22T01:27:28.465Z,36.65
2023-05-22T01:28:28.506Z,40.02
2023-05-22T01:29:28.534Z,35.96
2023-05-22T01:30:28.568Z,36.27
2023-05-22T01:31:28.600Z,34.81
2023-05-22T01:32:28.730Z,26.18
2023-05-22T01:33:28.866Z,34.81
2023-05-22T01:34:28.705Z,37.26
2023-05-22T01:35:28.755Z,29.00
2023-05-22T01:36:28.812Z,27.61
2023-05-22T01:37:28.810Z,36.39
2023-05-22T01:38:28.840Z,31.79
2023-05-22T01:39:28.879Z,33.72
2023-05-22T01:40:28.914Z,31.52
2023-05-22T01:41:28.955Z,37.38
2023-05-22T01:42:28.985Z,33.69
2023-05-22T01:43:29.024Z,34.34
2023-05-22T01:44:29.047Z,34.47
2023-05-22T01:45:29.128Z,30.04
2023-05-22T01:46:29.173Z,32.12
2023-05-22T01:47:29.164Z,28.18
2023-05-22T01:48:29.196Z,34.77
2023-05-22T01:49:29.251Z,36.70
2023-05-22T01:50:29.276Z,33.07
2023-05-22T01:51:29.306Z,30.23
2023-05-22T01:52:29.340Z,38.22
2023-05-22T01:53:29.370Z,36.00
2023-05-22T01:54:29.429Z,38.09
2023-05-22T01:55:29.457Z,32.47
2023-05-22T01:56:29.508Z,39.56
2023-05-22T01:57:29.533Z,32.77
2023-05-22T01:58:29.550Z,36.47
2023-05-22T01:59:29.588Z,30.93
2023-05-22T02:00:29.635Z,33.29
2023-05-22T02:01:29.796Z,32.99
2023-05-22T02:02:29.799Z,27.11
2023-05-22T02:03:29.889Z,38.43
2023-05-22T02:04:29.804Z,32.87
2023-05-22T02:05:29.961Z,35.73
2023-05-22T02:06:29.883Z,37.10
2023-05-22T02:07:29.945Z,36.89
2023-05-22T02:08:30.003Z,34.76
2023-05-22T02:09:30.029Z,33.16
2023-05-22T02:10:30.091Z,35.60
2023-05-22T02:11:30.125Z,31.07
2023-05-22T02:12:30.168Z,34.95
2023-05-22T02:13:30.209Z,26.24
2023-05-22T02:14:30.243Z,31.75
2023-05-22T02:15:30.308Z,30.44
2023-05-22T02:16:30.407Z,33.17
2023-05-22T02:17:30.427Z,38.65
2023-05-22T02:18:30.439Z,31.59
2023-05-22T02:19:30.533Z,32.37
2023-05-22T02:20:30.510Z,38.37
2023-05-22T02:21:30.583Z,39.74
2023-05-22T02:22:30.616Z,38.12
2023-05-22T02:23:30.665Z,36.37
2023-05-22T02:24:30.714Z,41.26
2023-05-22T02:25:30.754Z,35.34
2023-05-22T02:26:30.801Z,30.65
2023-05-22T02:27:30.834Z,33.77
2023-05-22T02:28:30.888Z,39.60
2023-05-22T02:29:30.928Z,38.11
2023-05-22T02:30:30.972Z,35.85
2023-05-22T02:31:31.085Z,37.02
2023-05-22T02:32:31.100Z,39.30
2023-05-22T02:33:31.131Z,37.97
2023-05-22T02:34:31.154Z,38.65
2023-05-22T02:35:31.201Z,38.51
2023-05-22T02:36:31.255Z,30.49
2023-05-22T02:37:31.341Z,41.54
2023-05-22T02:38:31.375Z,37.50
2023-05-22T02:39:31.407Z,38.03
2023-05-22T02:40:31.444Z,37.32
2023-05-22T02:41:31.506Z,35.93
2023-05-22T02:42:31.542Z,34.23
2023-05-22T02:43:31.575Z,32.40
2023-05-22T02:44:31.629Z,38.38
2023-05-22T02:45:31.681Z,32.72
2023-05-22T02:46:31.762Z,34.20
2023-05-22T02:47:31.791Z,38.07
2023-05-22T02:48:31.807Z,34.42
2023-05-22T02:49:31.861Z,30.07
2023-05-22T02:50:31.946Z,35.61
2023-05-22T02:51:31.955Z,30.90
2023-05-22T02:52:31.999Z,31.11
2023-05-22T02:53:32.074Z,37.64
2023-05-22T02:54:32.139Z,36.97
2023-05-22T02:55:32.150Z,32.64
2023-05-22T02:56:32.203Z,40.07
2023-05-22T02:57:32.251Z,35.37
2023-05-22T02:58:32.295Z,33.59
2023-05-22T02:59:32.353Z,36.63
2023-05-22T03:00:32.397Z,35.50
2023-05-22T03:01:32.503Z,29.97
2023-05-22T03:02:32.674Z,38.72
2023-05-22T03:03:32.616Z,25.98
2023-05-22T03:04:32.611Z,36.43
2023-05-22T03:05:32.660Z,33.82
2023-05-22T03:06:32.714Z,35.10
2023-05-22T03:07:32.757Z,34.29
2023-05-22T03:08:32.806Z,35.85
2023-05-22T03:09:33.009Z,27.57
2023-05-22T03:10:32.914Z,35.31
2023-05-22T03:11:32.961Z,37.95
2023-05-22T03:12:33.018Z,37.89
2023-05-22T03:13:33.064Z,38.61
2023-05-22T03:14:33.180Z,40.37
2023-05-22T03:15:33.197Z,39.56
2023-05-22T03:16:33.234Z,33.04
2023-05-22T03:17:33.367Z,36.50
2023-05-22T03:18:33.889Z,36.00
2023-05-22T03:19:33.389Z,37.27
2023-05-22T03:20:33.425Z,34.86
2023-05-22T03:21:33.476Z,34.08
2023-05-22T03:22:33.537Z,37.54
2023-05-22T03:23:33.591Z,36.41
2023-05-22T03:24:33.642Z,35.46
2023-05-22T03:25:33.727Z,34.48
2023-05-22T03:26:33.769Z,30.17
2023-05-22T03:27:33.794Z,31.01
2023-05-22T03:28:33.872Z,31.17
2023-05-22T03:29:33.913Z,37.11
2023-05-22T03:30:33.980Z,31.82
2023-05-22T03:31:34.026Z,36.37
2023-05-22T03:32:34.071Z,28.71
2023-05-22T03:33:34.152Z,33.23
2023-05-22T03:34:34.171Z,28.62
2023-05-22T03:35:34.232Z,26.11
2023-05-22T03:36:34.267Z,36.38
2023-05-22T03:37:34.323Z,29.64
2023-05-22T03:38:34.378Z,34.85
2023-05-22T03:39:34.420Z,34.62
2023-05-22T03:40:34.469Z,31.25
2023-05-22T03:41:34.559Z,36.80
2023-05-22T03:42:34.573Z,33.39
2023-05-22T03:43:34.630Z,33.83
2023-05-22T03:44:34.695Z,35.33
2023-05-22T03:45:34.778Z,33.76
2023-05-22T03:46:34.805Z,31.82
2023-05-22T03:47:34.877Z,31.25
2023-05-22T03:48:34.905Z,34.10
2023-05-22T03:49:34.964Z,33.45
2023-05-22T03:50:35.021Z,33.71
2023-05-22T03:51:35.064Z,33.01
2023-05-22T03:52:35.145Z,33.50
2023-05-22T03:53:35.160Z,35.08
2023-05-22T03:54:35.224Z,33.95
2023-05-22T03:55:35.307Z,31.21
2023-05-22T03:56:35.315Z,32.78
2023-05-22T03:57:35.393Z,32.71
2023-05-22T03:58:35.435Z,31.68
2023-05-22T03:59:35.472Z,34.00
2023-05-22T04:00:35.537Z,34.15
2023-05-22T04:01:35.585Z,29.70
2023-05-22T04:02:35.716Z,36.32
2023-05-22T04:03:35.746Z,35.40
2023-05-22T04:04:35.810Z,32.56
2023-05-22T04:05:35.883Z,35.26
2023-05-22T04:06:35.859Z,31.72
2023-05-22T04:07:35.923Z,28.65
2023-05-22T04:08:35.994Z,31.75
2023-05-22T04:09:36.021Z,32.83
2023-05-22T04:10:36.166Z,32.16
2023-05-22T04:11:36.134Z,30.02
2023-05-22T04:12:36.197Z,32.68
2023-05-22T04:13:36.280Z,32.05
2023-05-22T04:14:36.314Z,33.12
2023-05-22T04:15:36.385Z,30.04
2023-05-22T04:16:36.417Z,34.77
2023-05-22T04:17:36.497Z,31.80
2023-05-22T04:18:36.540Z,31.88
2023-05-22T04:19:36.639Z,31.81
2023-05-22T04:20:36.868Z,29.23
2023-05-22T04:21:36.711Z,33.19
2023-05-22T04:22:36.772Z,32.50
2023-05-22T04:23:36.825Z,31.63
2023-05-22T04:24:36.887Z,31.11
2023-05-22T04:25:36.949Z,30.68
2023-05-22T04:26:37.005Z,31.52
2023-05-22T04:27:37.063Z,29.14
2023-05-22T04:28:37.114Z,31.32
2023-05-22T04:29:37.202Z,31.36
2023-05-22T04:30:37.716Z,28.15
2023-05-22T04:31:37.483Z,32.28
2023-05-22T04:32:37.400Z,29.32
2023-05-22T04:33:37.420Z,35.05
2023-05-22T04:34:37.468Z,34.03
2023-05-22T04:35:37.534Z,31.15
2023-05-22T04:36:37.581Z,35.02
2023-05-22T04:37:37.648Z,32.98
2023-05-22T04:38:37.722Z,31.12
2023-05-22T04:39:37.772Z,29.15
2023-05-22T04:40:38.218Z,32.98
2023-05-22T04:41:37.877Z,36.04
2023-05-22T04:42:37.937Z,33.24
2023-05-22T04:43:37.997Z,37.04
2023-05-22T04:44:38.059Z,27.31
2023-05-22T04:45:38.208Z,33.36
2023-05-22T04:46:38.240Z,35.36
2023-05-22T04:47:38.356Z,34.25
2023-05-22T04:48:38.301Z,32.70
2023-05-22T04:49:38.365Z,35.79
2023-05-22T04:50:38.606Z,36.05
2023-05-22T04:51:38.496Z,31.56
2023-05-22T04:52:38.602Z,36.27
2023-05-22T04:53:38.656Z,36.66
2023-05-22T04:54:38.682Z,35.81
2023-05-22T04:55:38.746Z,33.80
2023-05-22T04:56:38.800Z,32.11
2023-05-22T04:57:38.868Z,34.00
2023-05-22T04:58:38.929Z,34.38
2023-05-22T04:59:38.992Z,26.84
2023-05-22T05:00:39.216Z,34.01
2023-05-22T05:01:39.211Z,29.99
2023-05-22T05:02:39.217Z,34.18
2023-05-22T05:03:39.279Z,36.40
2023-05-22T05:04:39.280Z,37.49
2023-05-22T05:05:39.344Z,32.53
2023-05-22T05:06:39.407Z,35.04
2023-05-22T05:07:39.519Z,27.20
2023-05-22T05:08:39.523Z,35.22
2023-05-22T05:09:39.580Z,32.00
2023-05-22T05:10:39.775Z,33.61
2023-05-22T05:11:39.698Z,33.99
2023-05-22T05:12:39.754Z,34.56
2023-05-22T05:13:39.814Z,31.58
2023-05-22T05:14:39.936Z,36.29
2023-05-22T05:15:39.937Z,33.43
2023-05-22T05:16:40.013Z,33.54
2023-05-22T05:17:40.135Z,32.93
2023-05-22T05:18:40.135Z,31.49
2023-05-22T05:19:40.293Z,32.43
2023-05-22T05:20:40.501Z,34.11
2023-05-22T05:21:40.324Z,32.89
2023-05-22T05:22:40.445Z,33.37
2023-05-22T05:23:40.438Z,35.28
2023-05-22T05:24:40.529Z,34.77
2023-05-22T05:25:40.948Z,36.76
2023-05-22T05:26:43.837Z,36.50
2023-05-22T05:27:40.589Z,36.84
2023-05-22T05:28:40.589Z,36.87
2023-05-22T05:29:40.571Z,34.92
2023-05-22T05:30:40.965Z,37.25
2023-05-22T05:31:40.611Z,37.21
2023-05-22T05:32:40.988Z,42.70
2023-05-22T05:33:40.559Z,43.85
2023-05-22T05:34:40.536Z,47.03
2023-05-22T05:35:42.846Z,50.71
2023-05-22T05:36:40.526Z,51.06
2023-05-22T05:37:40.498Z,52.50
2023-05-22T05:38:40.512Z,52.71
2023-05-22T05:39:40.489Z,55.48
2023-05-22T05:40:40.873Z,60.69
2023-05-22T05:41:40.470Z,67.13
2023-05-22T05:42:40.469Z,63.18
2023-05-22T05:43:40.451Z,70.37
2023-05-22T05:44:40.543Z,64.04
2023-05-22T05:45:40.459Z,76.98
2023-05-22T05:46:40.549Z,77.38
2023-05-22T05:47:41.525Z,77.73
2023-05-22T05:48:40.390Z,72.01
2023-05-22T05:49:40.508Z,80.27
2023-05-22T05:50:40.540Z,75.42
2023-05-22T05:51:40.409Z,85.34
2023-05-22T05:52:40.465Z,84.69
2023-05-22T05:53:40.323Z,81.66
2023-05-22T05:54:41.326Z,92.87
2023-05-22T05:55:40.386Z,91.82
2023-05-22T05:57:41.322Z,92.80
2023-05-22T05:58:40.306Z,93.00
2023-05-22T05:59:43.504Z,96.04
2023-05-22T06:01:43.469Z,93.75
2023-05-22T06:03:12.192Z,94.62
2023-05-22T06:03:40.427Z,94.25
2023-05-22T06:04:46.865Z,101.51
2023-05-22T06:05:40.284Z,94.65
2023-05-22T06:06:55.849Z,102.67
2023-05-22T06:07:40.216Z,95.01
2023-05-22T06:08:55.782Z,104.14
2023-05-22T06:09:40.193Z,95.28
2023-05-22T06:10:47.869Z,106.11
2023-05-22T06:11:43.359Z,95.45
2023-05-22T06:12:40.175Z,96.13
2023-05-22T06:15:47.527Z,96.36
2023-05-22T06:16:44.048Z,96.67
2023-05-22T06:17:47.572Z,97.24
2023-05-22T06:18:43.380Z,96.85
2023-05-22T06:19:41.271Z,97.51
2023-05-22T06:20:40.375Z,115.21
2023-05-22T06:21:39.983Z,146.56
2023-05-22T06:22:39.977Z,190.24
2023-05-22T06:23:39.937Z,245.35
2023-05-22T06:24:39.928Z,247.87
2023-05-22T06:25:39.899Z,248.33
2023-05-22T06:26:39.998Z,249.42
2023-05-22T06:27:39.886Z,246.59
2023-05-22T06:28:39.857Z,247.91
2023-05-22T06:29:39.828Z,245.29
2023-05-22T06:30:40.506Z,249.93
2023-05-22T06:31:39.808Z,250.00
2023-05-22T06:32:47.622Z,250.00
2023-05-22T06:33:39.890Z,250.33
2023-05-22T06:34:39.795Z,251.96
2023-05-22T06:35:39.708Z,253.13
2023-05-22T06:36:39.800Z,256.82
2023-05-22T06:37:39.666Z,266.10
2023-05-22T06:38:39.644Z,250.00
2023-05-22T06:39:39.621Z,246.51
2023-05-22T06:40:39.772Z,249.40
2023-05-22T06:41:39.585Z,248.58
2023-05-22T06:42:39.538Z,246.68
2023-05-22T06:43:39.616Z,243.72
2023-05-22T06:44:40.249Z,246.76
2023-05-22T06:45:39.493Z,249.97
2023-05-22T06:46:39.546Z,246.24
2023-05-22T06:47:39.546Z,249.12
2023-05-22T06:48:39.405Z,246.23
2023-05-22T06:49:39.393Z,245.41
2023-05-22T06:50:39.672Z,247.18
2023-05-22T06:51:40.310Z,247.84
2023-05-22T06:52:39.511Z,251.26
2023-05-22T06:53:39.275Z,250.00
2023-05-22T06:54:39.837Z,248.09
2023-05-22T06:55:39.295Z,248.33
2023-05-22T06:56:39.328Z,248.87
2023-05-22T06:57:39.499Z,248.78
2023-05-22T06:58:46.799Z,249.78
2023-05-22T06:59:39.624Z,250.09
2023-05-22T07:00:40.165Z,250.81
2023-05-22T07:01:39.388Z,253.08
2023-05-22T07:02:38.568Z,255.74
2023-05-22T07:03:39.247Z,259.66
2023-05-22T07:04:39.224Z,249.11
2023-05-22T07:05:39.274Z,246.92
2023-05-22T07:06:39.414Z,250.00
2023-05-22T07:07:39.509Z,250.00
2023-05-22T07:08:39.121Z,248.83
2023-05-22T07:09:39.286Z,247.78
2023-05-22T07:10:39.925Z,248.25
2023-05-22T07:11:39.022Z,248.00
2023-05-22T07:12:39.069Z,248.24
2023-05-22T07:13:39.033Z,249.43
2023-05-22T07:14:54.672Z,250.00
2023-05-22T07:15:39.003Z,250.29
2023-05-22T07:16:39.014Z,251.30
2023-05-22T07:17:39.346Z,252.51
2023-05-22T07:18:38.925Z,254.66
2023-05-22T07:19:38.876Z,259.35
2023-05-22T07:20:39.120Z,248.77
2023-05-22T07:21:38.813Z,246.52
2023-05-22T07:22:38.782Z,248.54
2023-05-22T07:23:38.758Z,247.89
2023-05-22T07:24:38.826Z,249.40
2023-05-22T07:25:38.669Z,249.13
2023-05-22T07:26:38.633Z,248.91
2023-05-22T07:27:38.597Z,250.00
2023-05-22T07:28:39.018Z,249.60
2023-05-22T07:29:38.533Z,249.08
2023-05-22T07:30:38.645Z,249.68
2023-05-22T07:31:38.498Z,247.24
2023-05-22T07:32:38.469Z,247.13
2023-05-22T07:33:40.098Z,247.49
2023-05-22T07:34:38.692Z,248.89
2023-05-22T07:35:46.004Z,245.00
2023-05-22T07:36:54.176Z,245.33
2023-05-22T07:37:45.984Z,245.59
2023-05-22T07:38:39.014Z,245.77
2023-05-22T07:39:38.494Z,247.63
2023-05-22T07:40:38.725Z,249.92
2023-05-22T07:41:38.424Z,253.35
2023-05-22T07:42:45.788Z,258.88
2023-05-22T07:43:38.521Z,245.72
2023-05-22T07:44:45.710Z,245.82
2023-05-22T07:45:38.418Z,245.86
2023-05-22T07:46:38.419Z,248.45
2023-05-22T07:47:39.554Z,252.66
2023-05-22T07:48:38.174Z,258.54
2023-05-22T07:49:54.151Z,264.33
2023-05-22T07:50:38.119Z,245.83
2023-05-22T07:54:53.589Z,246.40
2023-05-22T07:55:45.538Z,246.20
2023-05-22T07:56:41.164Z,245.93
2023-05-22T07:57:37.895Z,239.39
2023-05-22T07:58:38.016Z,213.55
2023-05-22T07:59:37.879Z,194.81
2023-05-22T08:00:37.814Z,184.93
2023-05-22T08:01:37.816Z,180.18
2023-05-22T08:02:38.097Z,169.60
2023-05-22T08:03:38.142Z,165.49
2023-05-22T08:04:37.923Z,142.73
2023-05-22T08:05:38.004Z,130.87
2023-05-22T08:06:37.758Z,130.84
2023-05-22T08:07:37.670Z,133.30
2023-05-22T08:08:38.003Z,126.49
2023-05-22T08:09:37.688Z,119.83
2023-05-22T08:10:47.080Z,114.55
2023-05-22T08:11:39.686Z,114.69
2023-05-22T08:12:38.009Z,114.87
2023-05-22T08:13:37.515Z,115.24
2023-05-22T08:14:37.507Z,116.38
2023-05-22T08:15:37.461Z,118.18
2023-05-22T08:16:37.488Z,117.36
2023-05-22T08:17:37.427Z,113.25
2023-05-22T08:18:37.535Z,116.08
2023-05-22T08:19:37.491Z,112.38
2023-05-22T08:20:37.394Z,105.53
2023-05-22T08:21:37.366Z,102.61
2023-05-22T08:22:37.294Z,93.66
2023-05-22T08:23:37.516Z,89.27
2023-05-22T08:24:37.243Z,85.82
2023-05-22T08:25:37.253Z,78.26
2023-05-22T08:26:37.219Z,76.58
2023-05-22T08:27:37.235Z,80.76
2023-05-22T08:28:37.609Z,80.98
2023-05-22T08:29:37.226Z,70.46
2023-05-22T08:30:37.352Z,64.64
2023-05-22T08:31:37.158Z,61.01
2023-05-22T08:32:37.673Z,58.58
2023-05-22T08:33:37.171Z,54.28
2023-05-22T08:34:37.192Z,56.89
2023-05-22T08:35:37.218Z,59.43
2023-05-22T08:36:37.271Z,56.44
2023-05-22T08:37:37.326Z,60.17
2023-05-22T08:38:37.636Z,60.54
2023-05-22T08:39:37.565Z,67.89
2023-05-22T08:40:37.568Z,64.82
2023-05-22T08:41:40.617Z,42.83
2023-05-22T08:42:37.382Z,38.39
2023-05-22T08:43:37.523Z,42.17
2023-05-22T08:44:37.569Z,44.13
2023-05-22T08:45:37.313Z,45.46
2023-05-22T08:46:37.339Z,41.52
2023-05-22T08:47:37.670Z,35.88
2023-05-22T08:48:37.274Z,35.53
2023-05-22T08:49:44.613Z,30.69
2023-05-22T08:50:37.315Z,30.94
2023-05-22T08:51:37.191Z,31.92
2023-05-22T08:52:40.762Z,32.72
2023-05-22T08:53:37.154Z,30.77
2023-05-22T08:54:37.072Z,24.02
2023-05-22T08:55:37.066Z,18.45
2023-05-22T08:56:39.782Z,22.64
2023-05-22T08:57:37.080Z,26.30
2023-05-22T08:58:37.006Z,19.95
2023-05-22T08:59:37.262Z,19.49
2023-05-22T09:00:37.009Z,17.06
2023-05-22T09:01:36.910Z,5.45
2023-05-22T09:02:37.029Z,20.35
2023-05-22T09:03:37.141Z,26.31
2023-05-22T09:04:36.801Z,24.77
2023-05-22T09:05:36.747Z,28.32
2023-05-22T09:06:36.721Z,24.49
2023-05-22T09:07:37.027Z,25.67
2023-05-22T09:08:36.664Z,27.79
2023-05-22T09:09:36.645Z,24.91
2023-05-22T09:10:36.731Z,25.60
2023-05-22T09:11:37.541Z,26.38
2023-05-22T09:12:36.554Z,28.05
2023-05-22T09:13:36.529Z,28.40
2023-05-22T09:14:36.525Z,32.42
2023-05-22T09:15:37.127Z,27.82
2023-05-22T09:16:36.480Z,26.23
2023-05-22T09:17:36.471Z,28.52
2023-05-22T09:18:36.557Z,31.62
2023-05-22T09:19:36.421Z,33.52
2023-05-22T09:20:36.583Z,33.11
2023-05-22T09:21:36.400Z,31.44
2023-05-22T09:22:36.272Z,29.54
2023-05-22T09:23:36.244Z,26.87
2023-05-22T09:24:36.220Z,28.79
2023-05-22T09:25:36.491Z,27.02
2023-05-22T09:26:36.990Z,27.25
2023-05-22T09:27:36.550Z,26.80
2023-05-22T09:28:36.545Z,27.84
2023-05-22T09:29:36.062Z,27.28
2023-05-22T09:30:36.030Z,25.18
2023-05-22T09:31:36.051Z,31.77
2023-05-22T09:32:36.008Z,45.20
2023-05-22T09:33:36.044Z,55.70
2023-05-22T09:34:35.945Z,71.32
2023-05-22T09:35:36.063Z,78.02
2023-05-22T09:36:35.846Z,90.99
2023-05-22T09:37:39.041Z,99.88
2023-05-22T09:38:43.194Z,97.66
2023-05-22T09:39:43.152Z,100.02
2023-05-22T09:40:39.492Z,99.97
2023-05-22T09:41:35.716Z,99.15
2023-05-22T09:42:36.657Z,100.85
2023-05-22T09:43:39.242Z,98.75
2023-05-22T09:45:36.566Z,100.02
2023-05-22T09:46:35.580Z,100.04
2023-05-22T09:47:35.581Z,100.07
2023-05-22T09:48:35.456Z,99.92
2023-05-22T09:49:35.415Z,96.65
2023-05-22T09:50:35.396Z,89.04
2023-05-22T09:51:35.373Z,87.21
2023-05-22T09:52:35.377Z,79.84
2023-05-22T09:53:35.548Z,72.35
2023-05-22T09:54:35.275Z,65.24
2023-05-22T09:55:35.243Z,70.15
2023-05-22T09:56:39.836Z,72.24
2023-05-22T09:57:35.183Z,72.33
2023-05-22T09:58:35.179Z,70.97
2023-05-22T09:59:35.095Z,69.73
2023-05-22T10:00:35.057Z,65.13
2023-05-22T10:01:35.130Z,59.41
2023-05-22T10:02:35.015Z,54.89
2023-05-22T10:03:35.084Z,57.29
2023-05-22T10:04:35.000Z,57.60
2023-05-22T10:05:34.871Z,60.22
2023-05-22T10:06:34.830Z,59.68
2023-05-22T10:07:34.787Z,53.73
2023-05-22T10:08:35.054Z,52.57
2023-05-22T10:09:35.062Z,48.22
2023-05-22T10:10:34.659Z,47.71
2023-05-22T10:11:34.677Z,47.94
2023-05-22T10:12:34.589Z,54.79
2023-05-22T10:13:34.551Z,49.20
2023-05-22T10:14:34.582Z,50.89
2023-05-22T10:15:34.489Z,46.70
2023-05-22T10:16:34.576Z,43.00
2023-05-22T10:17:34.435Z,45.73
2023-05-22T10:18:34.573Z,44.19
2023-05-22T10:19:34.493Z,42.94
2023-05-22T10:20:34.277Z,41.08
2023-05-22T10:21:34.242Z,37.54
2023-05-22T10:22:34.258Z,42.35
2023-05-22T10:23:34.562Z,45.53
2023-05-22T10:24:34.557Z,46.36
2023-05-22T10:25:34.309Z,48.74
2023-05-22T10:26:34.348Z,49.12
2023-05-22T10:27:34.365Z,39.06
2023-05-22T10:28:35.082Z,33.81
2023-05-22T10:29:34.442Z,37.26
2023-05-22T10:30:34.418Z,41.79
2023-05-22T10:31:34.400Z,42.58
2023-05-22T10:32:34.576Z,45.25
2023-05-22T10:33:34.478Z,49.73
2023-05-22T10:34:34.460Z,52.76
2023-05-22T10:35:34.639Z,55.38
2023-05-22T10:36:34.514Z,58.80
2023-05-22T10:37:34.521Z,58.98
2023-05-22T10:38:34.574Z,56.27
2023-05-22T10:39:34.596Z,56.64
2023-05-22T10:40:36.175Z,59.06
2023-05-22T10:41:34.596Z,65.00
2023-05-22T10:42:34.551Z,65.27
2023-05-22T10:43:34.531Z,47.66
2023-05-22T10:44:34.496Z,39.94
2023-05-22T10:45:34.499Z,36.29
2023-05-22T10:46:34.550Z,31.28
2023-05-22T10:47:34.425Z,25.00
2023-05-22T10:48:34.356Z,27.24
2023-05-22T10:49:34.594Z,19.96
2023-05-22T10:50:34.293Z,27.10
2023-05-22T10:51:34.406Z,25.00
2023-05-22T10:52:34.224Z,27.62
2023-05-22T10:53:34.585Z,26.33
2023-05-22T10:54:34.435Z,25.00
2023-05-22T10:55:34.121Z,24.56
2023-05-22T10:56:34.113Z,30.49
2023-05-22T10:57:34.053Z,25.00
2023-05-22T10:58:34.103Z,24.85
2023-05-22T10:59:34.018Z,27.42
2023-05-22T11:00:33.953Z,26.63
2023-05-22T11:01:33.938Z,32.36
2023-05-22T11:02:33.896Z,31.50
2023-05-22T11:03:34.138Z,25.00
2023-05-22T11:04:33.885Z,25.00
2023-05-22T11:05:33.776Z,30.60
2023-05-22T11:06:33.763Z,35.11
2023-05-22T11:07:33.844Z,38.31
2023-05-22T11:08:34.157Z,40.56
2023-05-22T11:09:33.640Z,30.79
2023-05-22T11:10:33.590Z,23.50
2023-05-22T11:11:33.565Z,27.20
2023-05-22T11:12:33.600Z,27.35
2023-05-22T11:13:33.592Z,25.71
2023-05-22T11:14:33.583Z,25.87
2023-05-22T11:15:33.412Z,28.23
2023-05-22T11:16:33.417Z,35.52
2023-05-22T11:17:33.528Z,49.21
2023-05-22T11:18:33.410Z,56.58
2023-05-22T11:19:33.308Z,66.06
2023-05-22T11:20:33.195Z,69.40
2023-05-22T11:21:33.153Z,74.38
2023-05-22T11:22:33.190Z,77.00
2023-05-22T11:23:33.229Z,79.56
2023-05-22T11:24:33.093Z,71.03
2023-05-22T11:25:32.992Z,79.80
2023-05-22T11:26:36.156Z,87.74
2023-05-22T11:27:32.924Z,87.93
2023-05-22T11:28:32.872Z,89.04
2023-05-22T11:29:34.096Z,91.62
2023-05-22T11:30:32.821Z,97.63
2023-05-22T11:31:32.855Z,106.11
2023-05-22T11:32:32.774Z,106.04
2023-05-22T11:33:33.093Z,104.55
2023-05-22T11:34:32.729Z,107.92
2023-05-22T11:35:32.761Z,110.51
2023-05-22T11:36:32.793Z,112.62
2023-05-22T11:37:31.837Z,114.74
2023-05-22T11:38:33.150Z,120.76
2023-05-22T11:39:33.995Z,121.54
2023-05-22T11:40:32.873Z,125.21
2023-05-22T11:41:33.894Z,130.29
2023-05-22T11:42:32.905Z,134.45
2023-05-22T11:43:32.936Z,138.25
2023-05-22T11:44:32.957Z,143.52
2023-05-22T11:45:33.071Z,147.90
2023-05-22T11:46:36.268Z,151.44
2023-05-22T11:47:32.993Z,151.64
2023-05-22T11:48:32.936Z,152.76
2023-05-22T11:49:36.323Z,155.85
2023-05-22T11:50:41.766Z,152.06
2023-05-22T11:51:32.837Z,152.20
2023-05-22T11:52:32.775Z,155.28
2023-05-22T11:53:33.113Z,161.25
2023-05-22T11:54:32.679Z,169.80
2023-05-22T11:55:32.766Z,182.93
2023-05-22T11:56:32.563Z,188.28
2023-05-22T11:57:32.558Z,190.22
2023-05-22T11:58:32.597Z,192.30
2023-05-22T11:59:32.562Z,193.22
2023-05-22T12:00:32.532Z,195.85
2023-05-22T12:01:32.337Z,198.49
2023-05-22T12:02:32.728Z,203.20
2023-05-22T12:03:32.333Z,206.65
2023-05-22T12:04:32.200Z,208.22
2023-05-22T12:05:32.135Z,203.33
2023-05-22T12:06:32.157Z,200.22
2023-05-22T12:07:33.041Z,192.09
2023-05-22T12:08:32.107Z,177.58
2023-05-22T12:09:31.966Z,175.98
2023-05-22T12:10:32.100Z,170.31
2023-05-22T12:11:31.985Z,160.93
2023-05-22T12:12:32.105Z,153.74
2023-05-22T12:13:31.756Z,151.52
2023-05-22T12:14:31.717Z,146.83
2023-05-22T12:15:31.657Z,145.88
2023-05-22T12:16:31.677Z,145.79
2023-05-22T12:17:31.567Z,146.60
2023-05-22T12:18:31.615Z,143.19
2023-05-22T12:19:31.579Z,144.38
2023-05-22T12:20:31.456Z,143.86
2023-05-22T12:21:31.428Z,145.15
2023-05-22T12:22:31.394Z,146.20
2023-05-22T12:23:31.662Z,143.87
2023-05-22T12:24:31.328Z,143.40
2023-05-22T12:25:32.301Z,145.74
2023-05-22T12:26:31.255Z,141.01
2023-05-22T12:27:32.919Z,140.30
2023-05-22T12:28:31.168Z,142.02
2023-05-22T12:29:31.125Z,146.13
2023-05-22T12:30:31.043Z,143.18
2023-05-22T12:31:31.150Z,141.82
2023-05-22T12:32:31.093Z,138.59
2023-05-22T12:33:31.103Z,140.24
2023-05-22T12:34:30.822Z,140.81
2023-05-22T12:35:30.769Z,137.95
2023-05-22T12:36:30.713Z,137.59
2023-05-22T12:37:30.661Z,137.18
2023-05-22T12:38:30.615Z,134.64
2023-05-22T12:39:30.584Z,131.27
2023-05-22T12:40:30.504Z,130.80
2023-05-22T12:41:30.443Z,126.31
2023-05-22T12:42:30.385Z,124.57
2023-05-22T12:43:30.456Z,124.99
2023-05-22T12:44:30.624Z,131.42
2023-05-22T12:45:30.209Z,133.34
2023-05-22T12:46:30.185Z,140.20
2023-05-22T12:47:30.133Z,144.48
2023-05-22T12:48:30.042Z,149.85
2023-05-22T12:49:29.981Z,151.53
2023-05-22T12:50:29.944Z,156.88
2023-05-22T12:51:29.881Z,160.52
2023-05-22T12:52:29.817Z,164.80
2023-05-22T12:53:30.126Z,168.70
2023-05-22T12:54:29.710Z,171.86